Hauptseite
METAR-TAF:

METAR-TAF

Flughäfen :

Militärflugplatz Rivolto

Udine, Italien

Breite: 45-59N, Länge: 013-02E, Höhe: 51 m

Beobachtung

Neuester Wetterbericht von vor 10 Stunden und 43 Minuten, um 13:55 UTC
Temperatur 31°C
Luftfeuchtigkeit 40%
Luftdruck 1018 hPa
Sichtweite 10 km oder mehr
Leicht bewölkt in der Höhe von 3000 ft

METAR: LIPI 201355Z /////KT 9999 FEW030 31/16 Q1018 RMK FEW VIS MIN 9999 WIND THR06 14005KT WIND THR24 35003KT BLU

Zeit: 02:38 (00:38 UTC)

Prognose

Neuester Wetterbericht von vor 13 Stunden und 38 Minuten, um 11:00 UTC
Gültige Prognose vom 20 um 12 UTC bis 20 um 21 UTC
Wind 5 kt aus unterschiedlichen Richtungen
Sichtweite 10 km oder mehr
Leicht bewölkt in der Höhe von 4000 ft

TAF: LIPI 201100Z 2012/2021 VRB05KT 9999 FEW040

Wetterbeobachtungen und Prognosen von mehr als 4000 Flughäfen (METAR und TAF Bericht).

Die verfügbaren Stationen werden durch gelbe und rote Markierungen auf der Karte dargestellt.

Führen Sie die Maus auf sie, um den Namen der Station zu sehen.

Darauf klicken, um die Beobachtung von Wetterbeobachtungen und Prognosen zu sehen.

Um die Karte zu ändern : klicken Sie auf den grünen Tasten mit einem schwarzen Kreuz Zum Vergrößern, auf den grünen Button mit einem Gedankenstrich zu verkleinern, oder auf die grünen Pfeile für benachbarte Karten.


METAR-TAF: